Time;durP1;ratioP1;P1;durP2;ratioP2;P2;SDS_P1;SDS_P2;PMS_P1;PMS_P2;Temp;Humidity;BMP_temperature;BMP_pressure;BME280_temperature;BME280_humidity;BME280_pressure;Samples;Min_cycle;Max_cycle;Signal;HPM_P1;HPM_P2
2022/08/21 00:02:12;;;;;;;14.27;5.20;;;;;;;;;;5081593;28;20027;-66
2022/08/21 00:04:37;;;;;;;11.83;5.70;;;;;;;;;;5071997;28;20059;-66
2022/08/21 00:07:03;;;;;;;9.10;4.90;;;;;;;;;;5077626;28;20056;-66
2022/08/21 00:09:28;;;;;;;10.10;4.40;;;;;;;;;;5081631;28;20549;-66
2022/08/21 00:11:53;;;;;;;8.93;4.60;;;;;;;;;;5072972;28;20043;-66
2022/08/21 00:14:18;;;;;;;13.13;4.90;;;;;;;;;;5076317;28;20387;-66
2022/08/21 00:16:44;;;;;;;14.60;5.20;;;;;;;;;;5076137;28;20077;-66
2022/08/21 00:19:09;;;;;;;10.90;5.90;;;;;;;;;;5073695;28;20024;-66
2022/08/21 00:21:35;;;;;;;9.73;5.97;;;;;;;;;;5074382;28;20107;-66
2022/08/21 00:24:01;;;;;;;12.90;5.70;;;;;;;;;;5070711;28;20024;-66
2022/08/21 00:26:26;;;;;;;10.07;4.97;;;;;;;;;;5074221;28;20074;-65
2022/08/21 00:28:51;;;;;;;13.13;5.33;;;;;;;;;;5072512;28;20016;-66
2022/08/21 00:31:17;;;;;;;16.37;5.83;;;;;;;;;;5073129;28;20032;-65
2022/08/21 00:33:43;;;;;;;12.80;5.67;;;;;;;;;;5070515;28;20027;-65
2022/08/21 00:36:08;;;;;;;6.93;4.60;;;;;;;;;;5071497;28;20104;-66
2022/08/21 00:38:34;;;;;;;12.70;5.27;;;;;;;;;;5078695;28;20472;-65
2022/08/21 00:41:00;;;;;;;9.97;5.60;;;;;;;;;;5086726;28;20020;-65
2022/08/21 00:43:28;;;;;;;14.07;6.00;;;;;;;;;;5090872;28;20020;-65
2022/08/21 00:45:53;;;;;;;11.70;5.60;;;;;;;;;;5080105;28;20029;-65
2022/08/21 00:48:19;;;;;;;10.27;6.00;;;;;;;;;;5080487;28;20063;-65
2022/08/21 00:51:04;;;;;;;10.73;5.27;;;;;;;;;;5075538;28;20991;-66
2022/08/21 00:53:30;;;;;;;10.27;5.30;;;;;;;;;;5056055;28;20085;-66
2022/08/21 00:55:56;;;;;;;10.60;5.27;;;;;;;;;;5084779;28;20418;-66
2022/08/21 00:58:22;;;;;;;9.77;5.80;;;;;;;;;;5074438;28;20439;-66
2022/08/21 01:00:48;;;;;;;13.47;5.37;;;;;;;;;;5083479;28;20756;-65
2022/08/21 01:03:15;;;;;;;7.87;4.90;;;;;;;;;;5091635;28;20016;-65
2022/08/21 01:05:41;;;;;;;12.73;5.40;;;;;;;;;;5090736;28;20404;-65
2022/08/21 01:08:07;;;;;;;10.40;5.37;;;;;;;;;;5091949;28;20012;-65
2022/08/21 01:10:33;;;;;;;10.50;4.90;;;;;;;;;;5082508;28;20047;-65
2022/08/21 01:12:59;;;;;;;11.73;5.43;;;;;;;;;;5076038;28;20032;-65
2022/08/21 01:15:25;;;;;;;8.70;5.50;;;;;;;;;;5081740;28;20085;-65
2022/08/21 01:17:51;;;;;;;10.10;5.87;;;;;;;;;;5074084;28;20024;-66
2022/08/21 01:20:16;;;;;;;10.13;4.97;;;;;;;;;;5081943;28;20088;-66
2022/08/21 01:22:42;;;;;;;8.57;4.40;;;;;;;;;;5081647;28;20016;-66
2022/08/21 01:25:07;;;;;;;11.13;4.93;;;;;;;;;;5084154;28;20020;-66
2022/08/21 01:27:33;;;;;;;9.80;5.00;;;;;;;;;;5080205;28;20027;-66
2022/08/21 01:30:00;;;;;;;12.73;5.83;;;;;;;;;;5078641;28;20157;-66
2022/08/21 01:32:26;;;;;;;12.47;7.00;;;;;;;;;;5075790;28;20028;-66
2022/08/21 01:34:52;;;;;;;13.47;7.20;;;;;;;;;;5072961;28;20352;-65
2022/08/21 01:37:19;;;;;;;13.07;7.67;;;;;;;;;;5080357;28;20369;-65
2022/08/21 01:39:44;;;;;;;13.77;7.40;;;;;;;;;;5094549;28;20142;-66
2022/08/21 01:42:10;;;;;;;16.13;6.97;;;;;;;;;;5089933;28;20376;-66
2022/08/21 01:44:35;;;;;;;15.10;8.37;;;;;;;;;;5076242;28;20152;-65
2022/08/21 01:47:03;;;;;;;13.50;7.63;;;;;;;;;;5079440;28;20021;-66
2022/08/21 01:49:28;;;;;;;14.73;7.00;;;;;;;;;;5074757;28;20032;-66
2022/08/21 01:51:53;;;;;;;10.87;6.80;;;;;;;;;;5083114;28;20134;-66
2022/08/21 01:54:19;;;;;;;11.17;6.70;;;;;;;;;;5073524;28;20028;-66
2022/08/21 01:56:45;;;;;;;14.93;7.17;;;;;;;;;;5087368;28;20066;-66
2022/08/21 01:59:11;;;;;;;11.03;6.73;;;;;;;;;;5084765;28;20031;-66
2022/08/21 02:01:36;;;;;;;10.90;6.27;;;;;;;;;;5079405;28;20396;-65
2022/08/21 02:04:01;;;;;;;11.97;6.20;;;;;;;;;;5076211;28;20020;-65
2022/08/21 02:06:27;;;;;;;13.83;6.87;;;;;;;;;;5077212;28;20059;-65
2022/08/21 02:08:53;;;;;;;9.43;5.37;;;;;;;;;;5080986;28;20107;-65
2022/08/21 02:11:18;;;;;;;12.57;6.20;;;;;;;;;;5081960;28;20531;-66
2022/08/21 02:13:43;;;;;;;15.20;7.83;;;;;;;;;;5077027;28;20021;-66
2022/08/21 02:16:09;;;;;;;12.90;7.57;;;;;;;;;;5080711;28;20034;-66
2022/08/21 02:18:34;;;;;;;9.27;6.43;;;;;;;;;;5086030;28;20103;-66
2022/08/21 02:21:00;;;;;;;8.63;5.60;;;;;;;;;;5080550;28;20025;-65
2022/08/21 02:23:25;;;;;;;10.80;5.87;;;;;;;;;;5071824;28;20028;-66
2022/08/21 02:25:50;;;;;;;9.37;5.60;;;;;;;;;;5072614;28;20142;-65
2022/08/21 02:28:16;;;;;;;8.93;5.57;;;;;;;;;;5079260;28;20051;-66
2022/08/21 02:30:43;;;;;;;13.30;6.17;;;;;;;;;;5081293;28;20073;-66
2022/08/21 02:33:09;;;;;;;11.50;6.23;;;;;;;;;;5072874;28;20017;-67
2022/08/21 02:35:34;;;;;;;12.90;7.00;;;;;;;;;;5080459;28;20031;-66
2022/08/21 02:38:02;;;;;;;13.10;7.60;;;;;;;;;;5077972;28;20392;-67
2022/08/21 02:40:30;;;;;;;13.63;6.40;;;;;;;;;;5073991;28;20029;-67
2022/08/21 02:42:55;;;;;;;11.80;6.80;;;;;;;;;;5073711;28;20021;-67
2022/08/21 02:45:21;;;;;;;13.57;7.10;;;;;;;;;;5078692;28;20031;-67
2022/08/21 02:47:47;;;;;;;13.33;8.40;;;;;;;;;;5083848;28;20028;-67
2022/08/21 02:50:12;;;;;;;15.33;8.30;;;;;;;;;;5082732;28;20375;-66
2022/08/21 02:52:37;;;;;;;14.23;9.47;;;;;;;;;;5081746;28;20037;-67
2022/08/21 02:55:03;;;;;;;15.07;9.13;;;;;;;;;;5077192;28;20024;-67
2022/08/21 02:57:28;;;;;;;16.33;9.07;;;;;;;;;;5074217;28;20028;-66
2022/08/21 02:59:53;;;;;;;13.43;9.03;;;;;;;;;;5078836;28;20024;-66
2022/08/21 03:02:21;;;;;;;11.00;7.00;;;;;;;;;;5071947;28;20099;-67
2022/08/21 03:04:46;;;;;;;13.37;6.90;;;;;;;;;;5078591;28;20088;-66
2022/08/21 03:07:11;;;;;;;13.30;7.40;;;;;;;;;;5079314;28;20032;-66
2022/08/21 03:09:37;;;;;;;13.67;8.10;;;;;;;;;;5074797;28;20031;-66
2022/08/21 03:12:03;;;;;;;12.17;7.03;;;;;;;;;;5102196;28;20031;-66
2022/08/21 03:14:28;;;;;;;11.00;6.87;;;;;;;;;;5071584;28;20016;-66
2022/08/21 03:16:54;;;;;;;11.17;6.80;;;;;;;;;;5074400;28;20047;-66
2022/08/21 03:19:20;;;;;;;15.47;7.00;;;;;;;;;;5072905;28;20024;-66
2022/08/21 03:21:46;;;;;;;15.60;7.63;;;;;;;;;;5078038;28;20032;-66
2022/08/21 03:24:11;;;;;;;15.03;9.23;;;;;;;;;;5083654;28;20015;-66
2022/08/21 03:26:36;;;;;;;15.80;9.67;;;;;;;;;;5078568;28;20480;-66
2022/08/21 03:29:02;;;;;;;17.13;10.40;;;;;;;;;;5076532;28;20040;-66
2022/08/21 03:31:30;;;;;;;16.40;10.83;;;;;;;;;;5083451;28;20025;-66
2022/08/21 03:33:56;;;;;;;20.20;12.20;;;;;;;;;;5078946;28;20020;-66
2022/08/21 03:36:21;;;;;;;19.70;12.90;;;;;;;;;;5087914;28;20405;-67
2022/08/21 03:38:46;;;;;;;20.83;13.97;;;;;;;;;;5074150;28;20590;-66
2022/08/21 03:41:12;;;;;;;23.63;14.00;;;;;;;;;;5081315;28;20031;-66
2022/08/21 03:43:38;;;;;;;26.60;14.13;;;;;;;;;;5074084;28;20215;-66
2022/08/21 03:46:03;;;;;;;23.13;14.07;;;;;;;;;;5070944;28;20024;-66
2022/08/21 03:48:29;;;;;;;14.90;8.17;;;;;;;;;;5079527;28;20028;-66
2022/08/21 03:50:54;;;;;;;11.23;7.80;;;;;;;;;;5076038;28;20027;-66
2022/08/21 03:53:19;;;;;;;11.30;7.17;;;;;;;;;;5077938;28;20794;-66
2022/08/21 03:55:46;;;;;;;11.93;8.87;;;;;;;;;;5080619;28;20091;-66
2022/08/21 03:58:11;;;;;;;16.13;10.63;;;;;;;;;;5072138;28;20012;-66
2022/08/21 04:00:37;;;;;;;22.63;13.93;;;;;;;;;;5075617;28;20024;-66
2022/08/21 04:03:03;;;;;;;18.27;13.57;;;;;;;;;;5053373;28;20119;-66
2022/08/21 04:05:28;;;;;;;18.90;13.53;;;;;;;;;;5076332;28;20116;-66
2022/08/21 04:07:57;;;;;;;22.83;15.73;;;;;;;;;;5081239;28;20449;-66
2022/08/21 04:10:24;;;;;;;27.33;15.93;;;;;;;;;;5088609;28;20082;-66
2022/08/21 04:12:49;;;;;;;25.77;16.17;;;;;;;;;;5079752;28;20776;-66
2022/08/21 04:15:14;;;;;;;22.53;16.13;;;;;;;;;;5076533;28;20081;-66
2022/08/21 04:17:40;;;;;;;22.50;15.07;;;;;;;;;;5080013;28;20114;-66
2022/08/21 04:20:05;;;;;;;26.43;14.40;;;;;;;;;;5083535;28;20540;-66
2022/08/21 04:22:31;;;;;;;22.07;13.37;;;;;;;;;;5086342;28;20024;-66
2022/08/21 04:24:56;;;;;;;20.83;12.77;;;;;;;;;;5081063;28;20452;-66
2022/08/21 04:27:21;;;;;;;19.30;13.33;;;;;;;;;;5083096;28;20488;-66
2022/08/21 04:29:47;;;;;;;22.57;13.70;;;;;;;;;;5072615;28;20123;-66
2022/08/21 04:32:12;;;;;;;22.97;15.60;;;;;;;;;;5073311;28;20059;-66
2022/08/21 04:34:37;;;;;;;22.07;14.73;;;;;;;;;;5081209;28;20445;-67
2022/08/21 04:37:03;;;;;;;14.23;9.00;;;;;;;;;;5076586;28;20036;-66
2022/08/21 04:39:28;;;;;;;20.33;13.40;;;;;;;;;;5071102;28;20112;-67
2022/08/21 04:41:53;;;;;;;9.97;7.87;;;;;;;;;;5075092;28;20151;-67
2022/08/21 04:44:18;;;;;;;11.87;6.70;;;;;;;;;;5075210;28;20112;-67
2022/08/21 04:46:44;;;;;;;9.37;5.70;;;;;;;;;;5078888;28;20036;-66
2022/08/21 04:49:09;;;;;;;10.87;6.63;;;;;;;;;;5080026;28;20035;-66
2022/08/21 04:51:36;;;;;;;12.20;7.10;;;;;;;;;;5078624;28;20032;-66
2022/08/21 04:54:15;;;;;;;14.23;6.60;;;;;;;;;;5075473;28;20036;-67
2022/08/21 04:56:51;;;;;;;10.50;6.60;;;;;;;;;;5075165;28;20032;-66
2022/08/21 04:59:20;;;;;;;14.17;7.50;;;;;;;;;;5081464;28;20128;-66
2022/08/21 05:01:46;;;;;;;11.13;6.60;;;;;;;;;;5078366;28;20107;-66
2022/08/21 05:04:14;;;;;;;8.27;6.33;;;;;;;;;;5073075;28;20111;-66
2022/08/21 05:06:41;;;;;;;8.00;5.13;;;;;;;;;;5074493;28;20016;-66
2022/08/21 05:09:09;;;;;;;10.57;4.77;;;;;;;;;;5080722;28;20397;-67
2022/08/21 05:11:34;;;;;;;6.93;4.00;;;;;;;;;;5078338;28;20763;-67
2022/08/21 05:14:00;;;;;;;8.50;3.87;;;;;;;;;;5073230;28;20028;-67
2022/08/21 05:16:26;;;;;;;9.90;3.80;;;;;;;;;;5073335;28;20021;-67
2022/08/21 05:18:51;;;;;;;6.20;3.73;;;;;;;;;;5076167;28;20021;-67
2022/08/21 05:21:16;;;;;;;10.25;4.35;;;;;;;;;;5065224;28;21935;-67
2022/08/21 05:23:42;;;;;;;10.00;4.28;;;;;;;;;;5072973;28;20103;-67
2022/08/21 05:26:08;;;;;;;6.95;3.90;;;;;;;;;;5077954;28;20028;-67
2022/08/21 05:28:33;;;;;;;8.18;3.60;;;;;;;;;;5077637;28;20476;-67
2022/08/21 05:30:58;;;;;;;8.23;3.00;;;;;;;;;;5081587;28;20031;-67
2022/08/21 05:33:24;;;;;;;6.13;3.28;;;;;;;;;;5074369;28;20031;-67
2022/08/21 05:35:50;;;;;;;8.23;3.70;;;;;;;;;;5077389;28;20017;-67
2022/08/21 05:38:16;;;;;;;6.35;3.60;;;;;;;;;;5077431;28;20091;-67
2022/08/21 05:40:41;;;;;;;8.57;3.53;;;;;;;;;;5086224;28;20111;-67
2022/08/21 05:43:06;;;;;;;9.63;3.50;;;;;;;;;;5075423;28;20107;-67
2022/08/21 05:45:32;;;;;;;7.65;3.75;;;;;;;;;;5070038;28;20099;-67
2022/08/21 05:47:57;;;;;;;7.75;3.45;;;;;;;;;;5073111;28;20020;-67
2022/08/21 05:50:23;;;;;;;8.55;3.63;;;;;;;;;;5092296;28;20097;-67
2022/08/21 05:52:48;;;;;;;9.18;3.60;;;;;;;;;;5076229;28;20032;-67
2022/08/21 05:55:14;;;;;;;10.70;3.88;;;;;;;;;;5084796;28;20020;-68
2022/08/21 05:57:41;;;;;;;8.98;3.30;;;;;;;;;;5092961;28;20103;-67
2022/08/21 06:00:08;;;;;;;10.10;3.67;;;;;;;;;;5077491;28;20615;-67
2022/08/21 06:02:34;;;;;;;7.90;3.65;;;;;;;;;;5091548;28;20078;-67
2022/08/21 06:04:59;;;;;;;10.77;3.33;;;;;;;;;;5090877;28;20052;-67
2022/08/21 06:07:24;;;;;;;9.13;3.55;;;;;;;;;;5085164;28;20067;-67
2022/08/21 06:09:50;;;;;;;8.70;3.35;;;;;;;;;;5081276;28;20070;-67
2022/08/21 06:12:15;;;;;;;10.20;3.40;;;;;;;;;;5091261;28;20024;-67
2022/08/21 06:14:41;;;;;;;7.40;3.10;;;;;;;;;;5068733;28;20419;-67
2022/08/21 06:17:07;;;;;;;9.60;3.70;;;;;;;;;;5072164;28;20035;-67
2022/08/21 06:19:33;;;;;;;8.20;3.13;;;;;;;;;;5066566;28;20473;-66
2022/08/21 06:21:58;;;;;;;10.40;3.40;;;;;;;;;;5073515;28;20019;-66
2022/08/21 06:24:23;;;;;;;8.98;3.22;;;;;;;;;;5079058;28;20035;-66
2022/08/21 06:26:49;;;;;;;10.38;3.50;;;;;;;;;;5092095;28;20093;-66
2022/08/21 06:29:16;;;;;;;11.75;3.20;;;;;;;;;;5091147;28;20024;-66
2022/08/21 06:31:42;;;;;;;8.60;3.67;;;;;;;;;;5076144;28;20021;-66
2022/08/21 06:34:07;;;;;;;9.98;3.33;;;;;;;;;;5088192;28;20077;-66
2022/08/21 06:36:33;;;;;;;8.80;4.03;;;;;;;;;;5087944;28;20020;-66
2022/08/21 06:38:58;;;;;;;8.75;3.50;;;;;;;;;;5078175;28;20426;-66
2022/08/21 06:41:24;;;;;;;9.15;3.83;;;;;;;;;;5083467;28;20028;-66
2022/08/21 06:43:49;;;;;;;8.63;3.25;;;;;;;;;;5072295;28;20024;-66
2022/08/21 06:46:14;;;;;;;6.30;3.05;;;;;;;;;;5083741;28;20024;-66
2022/08/21 06:48:40;;;;;;;8.60;3.33;;;;;;;;;;5090550;28;20078;-66
2022/08/21 06:51:05;;;;;;;10.57;3.30;;;;;;;;;;5086356;28;20072;-66
2022/08/21 06:53:30;;;;;;;7.45;2.95;;;;;;;;;;5090841;28;20028;-66
2022/08/21 06:55:55;;;;;;;8.23;2.90;;;;;;;;;;5086277;28;20103;-65
2022/08/21 06:58:20;;;;;;;7.50;3.25;;;;;;;;;;5083856;28;20028;-66
2022/08/21 07:00:48;;;;;;;8.18;3.03;;;;;;;;;;5073726;28;20031;-65
2022/08/21 07:03:16;;;;;;;8.20;2.70;;;;;;;;;;5075171;28;20098;-65
2022/08/21 07:05:41;;;;;;;10.43;3.30;;;;;;;;;;5083818;28;20059;-65
2022/08/21 07:08:06;;;;;;;11.52;3.33;;;;;;;;;;5091124;28;20052;-65
2022/08/21 07:10:31;;;;;;;7.30;3.47;;;;;;;;;;5090446;28;20019;-65
2022/08/21 07:12:57;;;;;;;10.90;2.83;;;;;;;;;;5090277;28;20028;-65
2022/08/21 07:15:22;;;;;;;8.15;2.90;;;;;;;;;;5085837;28;20181;-65
2022/08/21 07:17:48;;;;;;;9.20;3.30;;;;;;;;;;5077937;28;20035;-65
2022/08/21 07:20:13;;;;;;;7.18;2.97;;;;;;;;;;5080445;28;20027;-65
2022/08/21 07:22:40;;;;;;;6.13;2.63;;;;;;;;;;5082090;28;20019;-65
2022/08/21 07:25:05;;;;;;;10.45;3.30;;;;;;;;;;5063686;28;20031;-65
2022/08/21 07:27:31;;;;;;;7.57;3.15;;;;;;;;;;5065364;28;20029;-66
2022/08/21 07:29:56;;;;;;;7.32;2.80;;;;;;;;;;5084546;28;20138;-65
2022/08/21 07:32:22;;;;;;;8.45;3.20;;;;;;;;;;5072829;28;20020;-65
2022/08/21 07:34:47;;;;;;;7.68;3.10;;;;;;;;;;5080016;28;20393;-66
2022/08/21 07:37:12;;;;;;;6.95;2.75;;;;;;;;;;5076819;28;20032;-66
2022/08/21 07:39:38;;;;;;;6.75;3.10;;;;;;;;;;5089976;28;20023;-65
2022/08/21 07:42:03;;;;;;;6.95;2.72;;;;;;;;;;5077981;28;20107;-66
2022/08/21 07:44:34;;;;;;;8.20;2.80;;;;;;;;;;5072828;28;20362;-66
2022/08/21 07:47:00;;;;;;;7.82;2.40;;;;;;;;;;5077860;28;20365;-66
2022/08/21 07:49:26;;;;;;;9.40;2.65;;;;;;;;;;5089100;28;20032;-66
2022/08/21 07:51:51;;;;;;;6.88;2.75;;;;;;;;;;5074484;28;20020;-66
2022/08/21 07:54:17;;;;;;;8.40;3.13;;;;;;;;;;5076033;28;20032;-65
2022/08/21 07:56:42;;;;;;;7.18;2.83;;;;;;;;;;5073529;28;20021;-65
2022/08/21 07:59:08;;;;;;;7.50;2.80;;;;;;;;;;5082778;28;20020;-65
2022/08/21 08:01:33;;;;;;;9.13;2.20;;;;;;;;;;5066688;28;20071;-66
2022/08/21 08:04:01;;;;;;;6.57;2.60;;;;;;;;;;5070219;28;20031;-65
2022/08/21 08:06:27;;;;;;;6.32;2.22;;;;;;;;;;5075795;28;20116;-65
2022/08/21 08:08:53;;;;;;;5.85;2.30;;;;;;;;;;5078686;28;20540;-65
2022/08/21 08:11:18;;;;;;;9.07;2.30;;;;;;;;;;5070236;28;20103;-65
2022/08/21 08:13:46;;;;;;;5.45;2.30;;;;;;;;;;5085935;28;20035;-65
2022/08/21 08:16:12;;;;;;;11.60;2.95;;;;;;;;;;5068112;28;20028;-65
2022/08/21 08:18:37;;;;;;;6.95;2.58;;;;;;;;;;5053344;28;20439;-65
2022/08/21 08:21:04;;;;;;;7.00;2.55;;;;;;;;;;5057114;28;20392;-65
2022/08/21 08:23:30;;;;;;;9.02;2.70;;;;;;;;;;5068375;28;20561;-65
2022/08/21 08:25:55;;;;;;;8.07;2.67;;;;;;;;;;5067870;28;20115;-66
2022/08/21 08:28:21;;;;;;;9.32;2.47;;;;;;;;;;5072836;28;20541;-65
2022/08/21 08:30:47;;;;;;;9.23;2.35;;;;;;;;;;5067319;28;20023;-66
2022/08/21 08:33:12;;;;;;;10.63;2.22;;;;;;;;;;5061664;28;20043;-65
2022/08/21 08:35:39;;;;;;;7.40;2.10;;;;;;;;;;5060011;28;20372;-65
2022/08/21 08:38:05;;;;;;;10.55;2.30;;;;;;;;;;5060373;28;20028;-65
2022/08/21 08:40:43;;;;;;;6.55;2.15;;;;;;;;;;5068900;28;20112;-65
2022/08/21 08:43:09;;;;;;;6.47;2.10;;;;;;;;;;5075898;28;20051;-65
2022/08/21 08:45:37;;;;;;;8.27;1.95;;;;;;;;;;5067346;28;20024;-66
2022/08/21 08:48:04;;;;;;;5.38;1.60;;;;;;;;;;5062600;28;20155;-66
2022/08/21 08:50:43;;;;;;;7.63;1.90;;;;;;;;;;5069472;28;20024;-65
2022/08/21 08:53:11;;;;;;;5.82;2.00;;;;;;;;;;5074826;28;20043;-65
2022/08/21 08:55:38;;;;;;;6.20;1.90;;;;;;;;;;5071799;28;20070;-65
2022/08/21 08:58:04;;;;;;;8.10;2.47;;;;;;;;;;5082839;28;20123;-66
2022/08/21 09:00:29;;;;;;;9.20;2.33;;;;;;;;;;5084784;28;20111;-66
2022/08/21 09:02:56;;;;;;;8.02;2.20;;;;;;;;;;5089455;28;20027;-66
2022/08/21 09:05:25;;;;;;;5.72;1.95;;;;;;;;;;5088192;28;20098;-66
2022/08/21 09:07:50;;;;;;;6.78;2.00;;;;;;;;;;5074515;28;20140;-66
2022/08/21 09:10:35;;;;;;;6.53;1.80;;;;;;;;;;5086373;28;20476;-66
2022/08/21 09:13:01;;;;;;;7.63;2.00;;;;;;;;;;5091631;28;20036;-65
2022/08/21 09:15:31;;;;;;;7.78;1.92;;;;;;;;;;5074421;28;20085;-65
2022/08/21 09:17:56;;;;;;;7.63;2.22;;;;;;;;;;5072065;28;20028;-65
2022/08/21 09:20:27;;;;;;;7.55;2.10;;;;;;;;;;5083799;28;20035;-65
2022/08/21 09:23:01;;;;;;;5.95;1.63;;;;;;;;;;5090302;28;20024;-65
2022/08/21 09:25:30;;;;;;;5.72;1.80;;;;;;;;;;5084192;28;20384;-66
2022/08/21 09:27:55;;;;;;;6.55;1.67;;;;;;;;;;5071980;28;20074;-66
2022/08/21 09:30:25;;;;;;;6.15;1.70;;;;;;;;;;5085138;28;20028;-66
2022/08/21 09:32:50;;;;;;;5.72;1.73;;;;;;;;;;5071143;28;20032;-66
2022/08/21 09:35:19;;;;;;;6.10;1.60;;;;;;;;;;5076897;28;20080;-66
2022/08/21 09:38:07;;;;;;;7.55;1.80;;;;;;;;;;5087440;28;20361;-66
2022/08/21 09:40:35;;;;;;;5.75;1.60;;;;;;;;;;5093147;28;20069;-66
2022/08/21 09:43:16;;;;;;;6.38;1.80;;;;;;;;;;5087481;28;20023;-65
2022/08/21 09:45:43;;;;;;;8.40;1.88;;;;;;;;;;5075384;28;20492;-65
2022/08/21 09:48:18;;;;;;;6.90;1.80;;;;;;;;;;5076195;28;20039;-65
2022/08/21 09:50:44;;;;;;;6.65;1.60;;;;;;;;;;5073644;28;20078;-65
2022/08/21 09:53:18;;;;;;;6.10;1.55;;;;;;;;;;5070495;28;20032;-65
2022/08/21 09:58:33;;;;;;;5.53;1.48;;;;;;;;;;5084132;28;20566;-65
2022/08/21 10:01:00;;;;;;;6.30;1.52;;;;;;;;;;5077815;28;20082;-65
2022/08/21 10:03:26;;;;;;;8.57;2.10;;;;;;;;;;5081142;28;20040;-65
2022/08/21 10:05:56;;;;;;;6.82;1.60;;;;;;;;;;5084279;28;20031;-66
2022/08/21 10:08:23;;;;;;;7.93;1.83;;;;;;;;;;5086084;28;20028;-65
2022/08/21 10:10:53;;;;;;;5.97;1.45;;;;;;;;;;5077911;28;20032;-65
2022/08/21 10:13:19;;;;;;;;;;;;;;;;;;5082154;28;20031;-66
2022/08/21 10:15:51;;;;;;;4.93;1.52;;;;;;;;;;5071653;28;19917;-65
2022/08/21 10:18:21;;;;;;;5.93;1.55;;;;;;;;;;5075171;28;20027;-66
2022/08/21 10:20:49;;;;;;;8.27;1.77;;;;;;;;;;5080797;28;20023;-65
2022/08/21 10:23:28;;;;;;;4.88;1.50;;;;;;;;;;5086590;28;20039;-65
2022/08/21 10:25:56;;;;;;;7.70;1.67;;;;;;;;;;5081590;28;20478;-66
2022/08/21 10:28:34;;;;;;;8.15;1.70;;;;;;;;;;5082602;28;20421;-66
2022/08/21 10:31:08;;;;;;;6.30;1.83;;;;;;;;;;5075769;28;20029;-65
2022/08/21 10:33:57;;;;;;;6.47;1.40;;;;;;;;;;5085324;28;20066;-66
2022/08/21 10:36:30;;;;;;;11.60;2.03;;;;;;;;;;5074774;28;20411;-65
2022/08/21 10:39:04;;;;;;;6.65;1.60;;;;;;;;;;5072165;28;20101;-65
2022/08/21 10:41:41;;;;;;;6.55;1.80;;;;;;;;;;5074791;28;20389;-66
2022/08/21 10:44:09;;;;;;;8.93;1.50;;;;;;;;;;5086614;28;20031;-65
2022/08/21 10:46:45;;;;;;;6.40;1.70;;;;;;;;;;5080651;28;20426;-66
2022/08/21 10:49:29;;;;;;;7.25;1.83;;;;;;;;;;5090278;28;20059;-65
2022/08/21 10:52:06;;;;;;;7.78;1.90;;;;;;;;;;5075346;28;20059;-66
2022/08/21 10:54:37;;;;;;;6.13;1.83;;;;;;;;;;5084449;28;20484;-65
2022/08/21 10:57:06;;;;;;;4.35;1.42;;;;;;;;;;5084758;28;20024;-65
2022/08/21 10:59:40;;;;;;;6.32;1.70;;;;;;;;;;5088313;28;20028;-65
2022/08/21 11:02:18;;;;;;;5.45;1.52;;;;;;;;;;5073874;28;20043;-66
2022/08/21 11:04:58;;;;;;;8.10;1.67;;;;;;;;;;5090862;28;20019;-66
2022/08/21 11:07:29;;;;;;;5.35;1.90;;;;;;;;;;5078754;28;20419;-65
2022/08/21 11:09:57;;;;;;;5.85;1.60;;;;;;;;;;5082591;28;20036;-66
2022/08/21 11:12:27;;;;;;;10.40;1.67;;;;;;;;;;5089694;28;20511;-66
2022/08/21 11:14:55;;;;;;;7.22;1.50;;;;;;;;;;5074272;28;20047;-66
2022/08/21 11:17:27;;;;;;;7.20;1.88;;;;;;;;;;5076770;28;20757;-69
2022/08/21 11:20:09;;;;;;;5.60;1.30;;;;;;;;;;5086357;28;20028;-66
2022/08/21 11:22:45;;;;;;;7.65;1.67;;;;;;;;;;5081876;28;20034;-66
2022/08/21 11:25:19;;;;;;;5.03;1.50;;;;;;;;;;5071302;28;20526;-66
2022/08/21 11:27:56;;;;;;;6.70;1.60;;;;;;;;;;5075457;28;20035;-66
2022/08/21 11:30:24;;;;;;;7.53;1.80;;;;;;;;;;5087760;28;20027;-66
2022/08/21 11:32:52;;;;;;;7.35;1.90;;;;;;;;;;5078215;28;20480;-66
2022/08/21 11:35:47;;;;;;;7.72;2.15;;;;;;;;;;5090198;28;20031;-66
2022/08/21 11:38:12;;;;;;;5.82;1.88;;;;;;;;;;5059711;28;20488;-66
2022/08/21 11:40:40;;;;;;;8.07;2.25;;;;;;;;;;5082058;28;20031;-66
2022/08/21 11:43:05;;;;;;;8.35;2.10;;;;;;;;;;5075969;28;20036;-66
2022/08/21 11:45:39;;;;;;;11.10;2.45;;;;;;;;;;5083627;28;20024;-66
2022/08/21 11:48:23;;;;;;;10.40;2.00;;;;;;;;;;5071859;28;20426;-66
2022/08/21 11:50:50;;;;;;;7.03;2.10;;;;;;;;;;5075697;28;20028;-66
2022/08/21 11:53:20;;;;;;;5.53;1.90;;;;;;;;;;5074902;28;20036;-66
2022/08/21 11:55:51;;;;;;;8.25;2.05;;;;;;;;;;5071585;28;20028;-65
2022/08/21 11:58:20;;;;;;;6.72;1.77;;;;;;;;;;5071172;28;20048;-66
2022/08/21 12:00:52;;;;;;;6.38;1.80;;;;;;;;;;5100520;28;20084;-66
2022/08/21 12:03:37;;;;;;;8.52;2.10;;;;;;;;;;5091689;28;20028;-65
2022/08/21 12:06:02;;;;;;;6.80;1.98;;;;;;;;;;5095002;28;20035;-66
2022/08/21 12:08:28;;;;;;;5.75;1.75;;;;;;;;;;5079953;28;20017;-66
2022/08/21 12:11:01;;;;;;;5.77;1.90;;;;;;;;;;5090375;28;20392;-66
2022/08/21 12:13:28;;;;;;;6.00;1.90;;;;;;;;;;5074744;28;20259;-65
2022/08/21 12:16:04;;;;;;;6.10;1.77;;;;;;;;;;5079878;28;20033;-66
2022/08/21 12:18:33;;;;;;;5.45;2.38;;;;;;;;;;5084892;28;20023;-66
2022/08/21 12:20:58;;;;;;;5.32;2.40;;;;;;;;;;5078674;28;20595;-66
2022/08/21 12:23:30;;;;;;;5.75;2.20;;;;;;;;;;5073671;28;20024;-66
2022/08/21 12:25:59;;;;;;;7.43;2.50;;;;;;;;;;5080987;28;20376;-66
2022/08/21 12:28:24;;;;;;;5.05;2.30;;;;;;;;;;5080160;28;20027;-66
2022/08/21 12:30:50;;;;;;;6.75;2.75;;;;;;;;;;5085149;28;20028;-65
2022/08/21 12:33:24;;;;;;;5.72;2.60;;;;;;;;;;5077835;28;20082;-66
2022/08/21 12:35:51;;;;;;;6.40;2.40;;;;;;;;;;5083754;28;20032;-66
2022/08/21 12:38:22;;;;;;;7.20;3.13;;;;;;;;;;5076911;28;20031;-66
2022/08/21 12:40:53;;;;;;;7.35;3.40;;;;;;;;;;5085095;28;20377;-66
2022/08/21 12:43:21;;;;;;;5.75;2.90;;;;;;;;;;5085822;28;20020;-66
2022/08/21 12:45:48;;;;;;;7.43;2.70;;;;;;;;;;5077064;28;20024;-66
2022/08/21 12:48:20;;;;;;;7.07;3.45;;;;;;;;;;5079432;28;20016;-65
2022/08/21 12:50:50;;;;;;;6.32;2.72;;;;;;;;;;5076588;28;20053;-66
2022/08/21 12:53:21;;;;;;;6.90;3.00;;;;;;;;;;5075438;28;20029;-66
2022/08/21 12:55:46;;;;;;;10.80;3.33;;;;;;;;;;5088948;28;20282;-66
2022/08/21 12:58:22;;;;;;;7.63;3.03;;;;;;;;;;5081204;28;20028;-66
2022/08/21 13:00:55;;;;;;;8.35;3.40;;;;;;;;;;5084600;28;20026;-66
2022/08/21 13:03:21;;;;;;;8.13;4.20;;;;;;;;;;5081374;28;20043;-66
2022/08/21 13:05:47;;;;;;;9.05;4.28;;;;;;;;;;5075517;28;20759;-66
2022/08/21 13:08:13;;;;;;;9.85;4.07;;;;;;;;;;5077401;28;20016;-66
2022/08/21 13:10:39;;;;;;;8.23;3.88;;;;;;;;;;5082757;28;20057;-66
2022/08/21 13:13:12;;;;;;;7.22;3.35;;;;;;;;;;5074367;28;20030;-65
2022/08/21 13:15:38;;;;;;;7.93;3.47;;;;;;;;;;5084473;28;20054;-65
2022/08/21 13:18:05;;;;;;;7.68;3.42;;;;;;;;;;5077163;28;20444;-66
2022/08/21 13:20:32;;;;;;;5.63;2.70;;;;;;;;;;5083791;28;20032;-66
2022/08/21 13:22:59;;;;;;;6.18;2.70;;;;;;;;;;5081629;28;20016;-66
2022/08/21 13:25:27;;;;;;;10.80;2.85;;;;;;;;;;5073656;28;20029;-66
2022/08/21 13:27:58;;;;;;;7.40;3.38;;;;;;;;;;5073150;28;20019;-65
2022/08/21 13:30:23;;;;;;;8.07;3.10;;;;;;;;;;5073593;28;20028;-65
2022/08/21 13:32:55;;;;;;;7.70;3.30;;;;;;;;;;5077724;28;20039;-66
2022/08/21 13:35:40;;;;;;;5.88;2.70;;;;;;;;;;5078972;28;20392;-65
2022/08/21 13:38:05;;;;;;;6.85;2.92;;;;;;;;;;5063386;28;20476;-66
2022/08/21 13:40:46;;;;;;;6.07;2.55;;;;;;;;;;5076477;28;20028;-65
2022/08/21 13:43:12;;;;;;;;;;;;;;;;;;5068484;28;20067;-65
2022/08/21 13:45:37;;;;;;;8.30;2.80;;;;;;;;;;5071913;28;19916;-66
2022/08/21 13:48:03;;;;;;;8.82;2.20;;;;;;;;;;5077392;28;20542;-65
2022/08/21 13:50:28;;;;;;;7.38;2.40;;;;;;;;;;5067480;28;21192;-66
2022/08/21 13:52:56;;;;;;;6.80;2.47;;;;;;;;;;5079960;28;20560;-66
2022/08/21 13:55:21;;;;;;;5.47;2.25;;;;;;;;;;5078684;28;20029;-66
2022/08/21 13:57:47;;;;;;;6.13;2.13;;;;;;;;;;5075905;28;20125;-66
2022/08/21 14:00:17;;;;;;;7.43;2.00;;;;;;;;;;5075683;28;20024;-66
2022/08/21 14:02:43;;;;;;;;;;;;;;;;;;5075758;28;20020;-66
2022/08/21 14:05:14;;;;;;;4.75;1.73;;;;;;;;;;5080672;28;19935;-66
2022/08/21 14:07:40;;;;;;;5.97;1.80;;;;;;;;;;5081446;28;20448;-66
2022/08/21 14:10:06;;;;;;;6.35;1.83;;;;;;;;;;5083410;28;20016;-66
2022/08/21 14:12:41;;;;;;;10.15;1.90;;;;;;;;;;5078828;28;20095;-65
2022/08/21 14:15:08;;;;;;;6.78;1.75;;;;;;;;;;5077543;28;20024;-66
2022/08/21 14:17:41;;;;;;;4.85;1.50;;;;;;;;;;5083874;28;20024;-66
2022/08/21 14:20:07;;;;;;;6.28;1.67;;;;;;;;;;5089584;28;20058;-66
2022/08/21 14:22:35;;;;;;;5.45;1.50;;;;;;;;;;5082683;28;20055;-65
2022/08/21 14:25:01;;;;;;;4.22;1.45;;;;;;;;;;5077438;28;20043;-65
2022/08/21 14:27:28;;;;;;;4.18;1.30;;;;;;;;;;5093445;28;20416;-65
2022/08/21 14:29:57;;;;;;;5.90;1.38;;;;;;;;;;5092879;28;20059;-66
2022/08/21 14:32:26;;;;;;;5.00;1.35;;;;;;;;;;5080185;28;20044;-66
2022/08/21 14:34:52;;;;;;;7.93;1.50;;;;;;;;;;5092707;28;20111;-66
2022/08/21 14:37:17;;;;;;;5.05;1.30;;;;;;;;;;5093180;28;20074;-66
2022/08/21 14:39:43;;;;;;;3.85;1.40;;;;;;;;;;5092991;28;20031;-66
2022/08/21 14:42:08;;;;;;;6.80;1.45;;;;;;;;;;5093080;28;20012;-66
2022/08/21 14:44:33;;;;;;;5.35;1.40;;;;;;;;;;5092861;28;20035;-65